Time;durP1;ratioP1;P1;durP2;ratioP2;P2;SDS_P1;SDS_P2;PMS_P1;PMS_P2;Temp;Humidity;BMP_temperature;BMP_pressure;BME280_temperature;BME280_humidity;BME280_pressure;Samples;Min_cycle;Max_cycle;Signal;HPM_P1;HPM_P2
2021/06/22 00:00:14;;;;;;;18.07;5.47;;;;;;;25.55;62.44;99452.52;1817573;76;21438;-81
2021/06/22 00:02:41;;;;;;;15.28;5.15;;;;;;;25.53;62.39;99445.23;1811136;78;21212;-81
2021/06/22 00:05:07;;;;;;;;;;;;;;;25.48;62.57;99445.22;1816559;78;21070;-81
2021/06/22 00:07:33;;;;;;;10.18;4.72;;;;;;;25.42;63.10;99445.78;1806693;76;21105;-80
2021/06/22 00:09:59;;;;;;;10.98;5.35;;;;;;;25.40;62.78;99447.41;1821362;77;20961;-79
2021/06/22 00:12:25;;;;;;;9.18;5.28;;;;;;;25.41;62.91;99442.80;1810171;78;20922;-81
2021/06/22 00:14:51;;;;;;;12.80;5.03;;;;;;;25.34;63.21;99439.03;1814000;77;21286;-81
2021/06/22 00:17:16;;;;;;;10.10;5.40;;;;;;;25.31;63.26;99436.87;1821763;76;27172;-81
2021/06/22 00:19:42;;;;;;;12.25;5.00;;;;;;;25.24;63.48;99436.30;1794192;76;21111;-82
2021/06/22 00:22:08;;;;;;;12.37;5.42;;;;;;;25.23;63.62;99441.42;1766156;79;21165;-82
2021/06/22 00:24:33;;;;;;;15.03;5.25;;;;;;;25.18;64.15;99445.48;1747552;79;21455;-81
2021/06/22 00:26:59;;;;;;;12.33;5.72;;;;;;;25.17;64.08;99446.03;1764551;79;21114;-81
2021/06/22 00:29:26;;;;;;;11.57;5.30;;;;;;;25.12;64.37;99446.56;1759485;79;26632;-81
2021/06/22 00:31:52;;;;;;;14.40;5.90;;;;;;;25.16;63.97;99443.60;1759600;79;21184;-81
2021/06/22 00:34:36;;;;;;;9.98;5.40;;;;;;;25.05;64.72;99449.55;1749014;79;21351;-81
2021/06/22 00:37:03;;;;;;;13.85;5.72;;;;;;;24.97;65.01;99456.28;1762109;79;21058;-81
2021/06/22 00:39:29;;;;;;;12.17;5.83;;;;;;;24.98;64.93;99463.29;1784868;80;21026;-82
2021/06/22 00:41:54;;;;;;;12.88;5.78;;;;;;;24.94;65.02;99450.07;1780142;80;21065;-81
2021/06/22 00:44:20;;;;;;;14.35;5.25;;;;;;;24.91;65.29;99459.52;1773234;80;21913;-81
2021/06/22 00:46:46;;;;;;;12.70;6.00;;;;;;;24.91;65.29;99461.41;1770419;78;21929;-80
2021/06/22 00:49:12;;;;;;;11.20;5.25;;;;;;;24.91;65.22;99458.16;1755735;81;20905;-82
2021/06/22 00:51:37;;;;;;;10.35;5.95;;;;;;;24.88;65.45;99457.89;1760615;81;20898;-82
2021/06/22 00:54:04;;;;;;;10.15;6.03;;;;;;;24.89;65.49;99460.33;1760091;81;20901;-81
2021/06/22 00:56:30;;;;;;;12.82;5.78;;;;;;;24.86;65.53;99462.73;1760138;81;21074;-81
2021/06/22 00:58:56;;;;;;;12.23;6.30;;;;;;;24.87;65.52;99458.97;1791901;77;21037;-80
2021/06/22 01:01:22;;;;;;;14.40;5.87;;;;;;;24.89;65.65;99457.63;1818125;78;20961;-81
2021/06/22 01:07:28;;;;;;;14.70;5.87;;;;;;;24.89;65.64;99464.90;1805401;77;20939;-81
2021/06/22 01:09:55;;;;;;;11.30;5.90;;;;;;;24.68;66.58;99456.77;1812840;77;21066;-81
2021/06/22 01:12:21;;;;;;;;;;;;;;;24.59;66.96;99454.31;1822423;77;21090;-79
2021/06/22 01:14:46;;;;;;;13.87;5.77;;;;;;;24.57;66.96;99451.59;1814613;77;27763;-79
2021/06/22 01:17:12;;;;;;;11.90;5.47;;;;;;;24.54;66.82;99447.53;1812797;77;21773;-80
2021/06/22 01:19:38;;;;;;;12.53;5.75;;;;;;;24.48;67.27;99441.84;1825873;77;20915;-80
2021/06/22 01:22:05;;;;;;;12.73;5.67;;;;;;;24.52;67.13;99442.95;1788696;78;21157;-79
2021/06/22 01:24:32;;;;;;;14.83;6.07;;;;;;;24.38;67.84;99442.64;1777080;80;21011;-79
2021/06/22 01:26:59;;;;;;;11.90;6.03;;;;;;;24.34;68.38;99446.38;1766252;79;21648;-80
2021/06/22 01:29:25;;;;;;;10.48;5.92;;;;;;;24.32;68.32;99443.14;1756847;79;21032;-80
2021/06/22 01:31:54;;;;;;;14.30;6.23;;;;;;;24.29;68.67;99444.22;1751424;80;21070;-79
2021/06/22 01:34:24;;;;;;;16.65;6.22;;;;;;;24.24;68.83;99439.62;1763711;81;21694;-79
2021/06/22 01:36:50;;;;;;;10.23;5.42;;;;;;;24.24;68.90;99443.66;1757381;80;21011;-80
2021/06/22 01:39:16;;;;;;;14.68;6.58;;;;;;;24.30;68.55;99441.78;1754948;79;21073;-80
2021/06/22 01:41:42;;;;;;;11.93;6.20;;;;;;;24.32;68.73;99453.14;1763682;81;20994;-80
2021/06/22 01:44:08;;;;;;;11.63;5.92;;;;;;;24.32;68.73;99444.50;1805176;77;20983;-80
2021/06/22 01:46:34;;;;;;;9.60;5.95;;;;;;;24.33;68.62;99444.78;1809264;77;21280;-81
2021/06/22 01:48:59;;;;;;;11.05;5.85;;;;;;;24.33;68.48;99439.38;1784141;77;20840;-80
2021/06/22 01:51:25;;;;;;;11.75;5.83;;;;;;;24.26;68.54;99425.31;1810122;78;21107;-81
2021/06/22 01:53:59;;;;;;;16.37;6.72;;;;;;;24.26;68.54;99425.31;1810005;78;20930;-80
2021/06/22 01:56:29;;;;;;;11.70;6.00;;;;;;;24.33;68.64;99439.38;1810884;76;21006;-79
2021/06/22 01:58:55;;;;;;;10.32;6.28;;;;;;;24.30;68.80;99435.86;1814080;78;21501;-79
2021/06/22 02:01:21;;;;;;;13.85;6.37;;;;;;;24.24;69.10;99440.97;1817896;76;20863;-79
2021/06/22 02:03:47;;;;;;;12.45;6.58;;;;;;;24.22;69.28;99440.95;1780740;78;20916;-78
2021/06/22 02:06:13;;;;;;;13.40;6.27;;;;;;;24.22;69.27;99440.40;1760552;81;21025;-78
2021/06/22 02:08:39;;;;;;;15.57;6.13;;;;;;;24.24;69.40;99438.27;1759140;80;21070;-79
2021/06/22 02:11:05;;;;;;;17.20;6.63;;;;;;;24.23;69.49;99446.63;1764632;81;21314;-79
2021/06/22 02:13:31;;;;;;;12.40;7.15;;;;;;;24.29;69.12;99443.67;1762197;80;20908;-79
2021/06/22 02:15:58;;;;;;;12.60;6.85;;;;;;;24.30;68.94;99446.66;1766354;80;20979;-79
2021/06/22 02:18:27;;;;;;;15.75;6.62;;;;;;;24.27;69.37;99445.83;1773722;80;20990;-79
2021/06/22 02:20:53;;;;;;;16.67;6.33;;;;;;;24.31;69.13;99446.11;1774898;80;20998;-80
2021/06/22 02:23:19;;;;;;;11.35;6.33;;;;;;;24.29;69.29;99449.07;1777270;80;21481;-80
2021/06/22 02:25:44;;;;;;;17.80;7.03;;;;;;;24.29;69.40;99452.31;1757541;78;29296;-80
2021/06/22 02:28:15;;;;;;;13.00;6.90;;;;;;;24.30;69.36;99464.19;1753594;79;20857;-80
2021/06/22 02:30:41;;;;;;;15.65;6.72;;;;;;;24.29;69.47;99463.11;1760154;79;21580;-80
2021/06/22 02:33:07;;;;;;;12.87;6.90;;;;;;;24.25;69.73;99453.91;1760819;81;21720;-80
2021/06/22 02:35:33;;;;;;;14.47;7.10;;;;;;;24.27;69.82;99458.49;1754890;81;21209;-79
2021/06/22 02:37:59;;;;;;;14.90;6.90;;;;;;;24.23;69.93;99459.56;1757093;81;20892;-80
2021/06/22 02:40:25;;;;;;;13.70;7.22;;;;;;;24.26;69.82;99457.69;1753860;80;21055;-80
2021/06/22 02:42:51;;;;;;;13.28;6.97;;;;;;;24.17;70.35;99461.97;1757472;81;21059;-79
2021/06/22 02:45:17;;;;;;;19.77;8.27;;;;;;;24.22;69.86;99461.98;1764865;80;27159;-80
2021/06/22 02:47:44;;;;;;;13.28;7.35;;;;;;;24.22;70.25;99467.37;1770775;78;21230;-79
2021/06/22 02:50:11;;;;;;;15.65;7.20;;;;;;;24.19;70.62;99466.55;1783323;80;21053;-81
2021/06/22 02:52:37;;;;;;;14.93;7.28;;;;;;;24.23;70.27;99471.70;1778467;80;25342;-80
2021/06/22 02:55:04;;;;;;;17.15;7.55;;;;;;;24.21;70.36;99480.61;1783805;78;20872;-81
2021/06/22 02:57:32;;;;;;;15.40;7.30;;;;;;;24.23;70.53;99475.75;1757256;79;21024;-80
2021/06/22 02:59:58;;;;;;;14.65;7.67;;;;;;;24.32;69.94;99470.13;1768125;79;21445;-81
2021/06/22 03:02:24;;;;;;;14.05;7.62;;;;;;;24.32;70.28;99467.98;1754545;79;20886;-81
2021/06/22 03:04:50;;;;;;;16.10;7.67;;;;;;;24.34;70.13;99463.92;1758625;79;20965;-80
2021/06/22 03:07:16;;;;;;;12.73;6.97;;;;;;;24.34;70.09;99465.27;1771800;79;21097;-80
2021/06/22 03:09:42;;;;;;;14.25;7.25;;;;;;;24.32;70.33;99478.22;1765066;79;27252;-80
2021/06/22 03:12:08;;;;;;;13.60;6.85;;;;;;;24.30;70.49;99478.20;1768830;79;21177;-81
2021/06/22 03:14:34;;;;;;;13.90;7.53;;;;;;;24.35;70.35;99472.30;1755899;79;21104;-79
2021/06/22 03:17:00;;;;;;;13.45;7.42;;;;;;;24.36;70.23;99475.80;1769473;79;21178;-79
2021/06/22 03:19:26;;;;;;;12.05;6.90;;;;;;;24.36;70.60;99466.35;1751412;79;20874;-77
2021/06/22 03:21:52;;;;;;;15.70;7.60;;;;;;;24.37;70.74;99469.34;1765359;79;20912;-80
2021/06/22 03:24:19;;;;;;;14.95;7.62;;;;;;;24.35;70.67;99465.55;1762803;78;21863;-79
2021/06/22 03:26:45;;;;;;;12.78;7.85;;;;;;;24.36;70.75;99462.30;1789728;78;20927;-80
2021/06/22 03:29:11;;;;;;;13.95;7.55;;;;;;;24.32;71.11;99467.43;1818373;77;20887;-79
2021/06/22 03:31:37;;;;;;;18.05;7.67;;;;;;;24.33;71.18;99466.88;1813411;78;21427;-80
2021/06/22 03:34:04;;;;;;;13.22;7.37;;;;;;;24.37;71.08;99466.64;1819169;78;20961;-81
2021/06/22 03:36:30;;;;;;;14.65;7.53;;;;;;;24.49;70.76;99472.62;1752931;78;21021;-80
2021/06/22 03:38:56;;;;;;;12.55;7.08;;;;;;;24.52;70.63;99476.69;1761941;79;21169;-80
2021/06/22 03:41:21;;;;;;;13.80;7.37;;;;;;;24.65;70.30;99480.80;1753912;79;21108;-81
2021/06/22 03:43:47;;;;;;;16.07;6.87;;;;;;;24.68;70.10;99486.47;1755285;79;20836;-81
2021/06/22 03:46:18;;;;;;;15.83;7.40;;;;;;;24.72;69.89;99494.32;1765410;78;20849;-81
2021/06/22 03:48:41;;;;;;;17.55;7.50;;;;;;;24.75;69.69;99491.64;1753563;79;20979;-81
2021/06/22 03:51:06;;;;;;;17.27;7.17;;;;;;;24.82;69.59;99488.67;1752972;81;20853;-80
2021/06/22 03:53:32;;;;;;;16.25;7.65;;;;;;;24.92;69.26;99490.02;1767878;80;21111;-81
2021/06/22 03:55:58;;;;;;;15.53;7.55;;;;;;;24.91;69.26;99487.88;1759671;78;21084;-80
2021/06/22 03:58:24;;;;;;;13.95;7.55;;;;;;;24.92;69.22;99488.67;1761370;79;20953;-79
2021/06/22 04:00:53;;;;;;;12.63;7.70;;;;;;;24.95;69.01;99485.44;1753419;79;21101;-79
2021/06/22 04:03:19;;;;;;;14.13;7.75;;;;;;;24.94;69.22;99487.89;1766358;79;21629;-81
2021/06/22 04:05:44;;;;;;;18.82;7.95;;;;;;;25.03;68.89;99482.23;1746268;79;20965;-80
2021/06/22 04:08:10;;;;;;;15.48;7.97;;;;;;;25.12;68.56;99474.94;1765612;79;21177;-80
2021/06/22 04:10:36;;;;;;;17.40;8.50;;;;;;;25.16;68.39;99475.48;1751482;79;21008;-83
2021/06/22 04:13:02;;;;;;;16.40;7.90;;;;;;;25.22;68.18;99474.95;1759737;79;21959;-82
2021/06/22 04:15:28;;;;;;;17.55;8.15;;;;;;;25.23;68.15;99471.98;1777508;79;21038;-82
2021/06/22 04:18:04;;;;;;;14.87;8.23;;;;;;;25.28;68.07;99479.27;1754891;79;20918;-82
2021/06/22 04:20:30;;;;;;;18.42;7.58;;;;;;;25.30;67.98;99483.09;1756907;79;21076;-84
2021/06/22 04:22:56;;;;;;;16.48;8.13;;;;;;;25.31;68.16;99480.12;1755668;79;21150;-81
2021/06/22 04:25:22;;;;;;;16.30;7.95;;;;;;;25.34;68.18;99482.80;1763784;79;21121;-82
2021/06/22 04:27:48;;;;;;;16.37;7.93;;;;;;;25.35;68.40;99483.88;1775515;79;20896;-81
2021/06/22 04:30:15;;;;;;;17.00;7.92;;;;;;;25.34;68.41;99482.28;1764572;79;21071;-81
2021/06/22 04:32:40;;;;;;;;;;;;;;;25.41;68.30;99486.05;1767177;79;21053;-79
2021/06/22 04:35:07;;;;;;;15.90;7.53;;;;;;;25.43;68.36;99480.66;1767715;79;20522;-86
2021/06/22 04:37:33;;;;;;;15.98;8.40;;;;;;;25.48;68.20;99481.72;1757976;79;21058;-83
2021/06/22 04:39:59;;;;;;;15.50;8.13;;;;;;;25.50;68.20;99490.39;1763859;79;21011;-85
2021/06/22 04:42:25;;;;;;;20.70;7.47;;;;;;;25.47;68.31;99487.67;1762679;77;20968;-82
2021/06/22 04:44:51;;;;;;;21.85;8.18;;;;;;;25.56;68.12;99489.30;1812523;77;20887;-86
2021/06/22 04:47:16;;;;;;;16.90;8.15;;;;;;;25.59;68.04;99490.08;1813632;77;20974;-84
2021/06/22 04:49:42;;;;;;;16.25;8.08;;;;;;;25.63;68.00;99504.69;1818523;77;21321;-80
2021/06/22 04:52:11;;;;;;;19.50;8.55;;;;;;;25.62;68.21;99494.42;1824233;77;21013;-81
2021/06/22 04:54:36;;;;;;;12.98;7.45;;;;;;;25.68;68.23;99494.41;1814608;77;21043;-81
2021/06/22 04:57:04;;;;;;;25.70;8.45;;;;;;;25.75;68.14;99492.24;1812835;77;21281;-87
2021/06/22 04:59:32;;;;;;;;;;;;;;;25.82;68.05;99497.36;1782754;77;21019;-83
2021/06/22 05:01:59;;;;;;;15.45;8.18;;;;;;;25.80;68.31;99499.79;1810634;77;21082;-82
2021/06/22 05:04:25;;;;;;;;;;;;;;;25.84;68.22;99513.59;1838087;77;20963;-82
2021/06/22 05:06:50;;;;;;;18.57;7.27;;;;;;;25.89;68.26;99516.28;1806744;77;20127;-82
2021/06/22 05:09:16;;;;;;;16.73;7.55;;;;;;;25.88;68.36;99517.91;1821194;77;20876;-83
2021/06/22 05:11:42;;;;;;;15.87;7.87;;;;;;;25.94;68.35;99509.50;1815813;77;21754;-85
2021/06/22 05:14:08;;;;;;;18.37;7.87;;;;;;;26.03;68.12;99504.38;1805794;76;21999;-84
2021/06/22 05:16:34;;;;;;;20.50;7.60;;;;;;;26.10;67.80;99510.33;1760697;81;27494;-82
2021/06/22 05:18:59;;;;;;;14.30;6.90;;;;;;;26.18;67.86;99516.23;1765678;80;21180;-84
2021/06/22 05:21:25;;;;;;;15.48;7.33;;;;;;;26.13;68.15;99516.54;1761990;80;20948;-83
2021/06/22 05:23:51;;;;;;;20.87;7.80;;;;;;;26.21;67.69;99512.98;1773408;78;27341;-84
2021/06/22 05:26:17;;;;;;;16.80;7.30;;;;;;;26.26;67.47;99512.98;1821085;76;21316;-85
2021/06/22 05:28:42;;;;;;;15.85;7.05;;;;;;;26.26;67.48;99515.69;1810189;76;21399;-82
2021/06/22 05:31:08;;;;;;;21.65;8.13;;;;;;;26.32;67.29;99514.59;1817834;78;20859;-80
2021/06/22 05:33:34;;;;;;;18.90;7.33;;;;;;;26.36;67.13;99517.55;1816100;76;21753;-83
2021/06/22 05:36:00;;;;;;;18.48;7.35;;;;;;;26.41;67.00;99514.80;1790527;76;21010;-82
2021/06/22 05:38:25;;;;;;;16.60;6.97;;;;;;;26.51;66.86;99520.98;1754229;79;21053;-83
2021/06/22 05:40:51;;;;;;;16.52;7.22;;;;;;;26.64;66.59;99520.13;1755970;79;21158;-84
2021/06/22 05:43:17;;;;;;;18.57;7.45;;;;;;;26.72;66.32;99515.50;1755370;79;21213;-81
2021/06/22 05:45:43;;;;;;;17.40;7.60;;;;;;;26.74;66.24;99519.28;1754320;79;20916;-79
2021/06/22 05:48:09;;;;;;;15.93;7.62;;;;;;;26.84;66.26;99516.53;1779884;80;20904;-82
2021/06/22 05:50:35;;;;;;;15.90;6.95;;;;;;;26.98;65.78;99516.72;1773312;79;21119;-83
2021/06/22 05:53:00;;;;;;;15.67;7.00;;;;;;;27.02;65.72;99508.30;1785484;78;21349;-81
2021/06/22 05:55:26;;;;;;;16.60;7.28;;;;;;;26.97;65.95;99517.27;1806194;78;20910;-82
2021/06/22 05:57:54;;;;;;;14.18;7.15;;;;;;;26.97;65.93;99520.50;1818319;77;28155;-83
2021/06/22 06:00:23;;;;;;;18.17;7.65;;;;;;;27.05;65.85;99522.64;1811173;78;21053;-82
2021/06/22 06:02:50;;;;;;;18.87;6.90;;;;;;;26.96;65.76;99495.88;1815999;78;21980;-83
2021/06/22 06:05:16;;;;;;;17.70;6.97;;;;;;;27.21;65.51;99514.66;1810641;76;21034;-83
2021/06/22 06:07:42;;;;;;;15.78;6.70;;;;;;;27.22;65.59;99519.52;1808669;76;21014;-84
2021/06/22 06:10:10;;;;;;;16.83;6.93;;;;;;;27.17;65.74;99517.66;1816348;76;21236;-85
2021/06/22 06:12:36;;;;;;;20.30;7.05;;;;;;;27.27;65.55;99514.08;1817577;78;21347;-91
2021/06/22 06:15:02;;;;;;;15.78;6.50;;;;;;;27.33;65.63;99510.80;1822267;78;21696;-80
2021/06/22 06:17:28;;;;;;;;;;;;;;;27.37;65.67;99511.30;1824384;78;21488;-82
2021/06/22 06:19:54;;;;;;;15.43;6.27;;;;;;;27.44;65.52;99517.77;1821978;78;20210;-82
2021/06/22 06:22:20;;;;;;;15.08;6.87;;;;;;;27.50;65.33;99513.92;1817975;78;26631;-79
2021/06/22 06:24:46;;;;;;;18.63;6.90;;;;;;;27.51;65.56;99522.30;1811283;78;21217;-84
2021/06/22 06:27:18;;;;;;;21.33;6.97;;;;;;;27.57;65.04;99517.09;1784450;78;21018;-82
2021/06/22 06:32:14;;;;;;;19.17;7.00;;;;;;;27.61;64.92;99515.17;1763682;81;21898;-81
2021/06/22 06:34:41;;;;;;;18.90;5.90;;;;;;;27.70;64.89;99516.17;1759824;81;22460;-84
2021/06/22 06:37:07;;;;;;;16.57;6.62;;;;;;;27.76;64.76;99509.61;1739492;80;21062;-82
2021/06/22 06:39:32;;;;;;;17.00;6.33;;;;;;;27.86;64.61;99507.33;1764798;80;20946;-85
2021/06/22 06:41:58;;;;;;;19.00;6.92;;;;;;;27.89;64.47;99504.87;1754771;80;20896;-84
2021/06/22 06:44:24;;;;;;;19.43;6.63;;;;;;;27.88;64.29;99505.95;1756585;81;28291;-86
2021/06/22 06:46:50;;;;;;;20.17;6.95;;;;;;;27.96;64.12;99506.47;1777022;77;20872;-80
2021/06/22 06:49:15;;;;;;;15.72;6.45;;;;;;;27.96;64.23;99502.39;1759123;78;20902;-82
2021/06/22 06:51:41;;;;;;;17.47;6.63;;;;;;;27.96;63.94;99504.55;1747708;79;27418;-84
2021/06/22 06:54:07;;;;;;;24.47;6.60;;;;;;;28.07;63.82;99508.77;1766127;81;20893;-80
2021/06/22 06:56:33;;;;;;;16.50;6.33;;;;;;;28.10;63.83;99508.19;1778508;78;21231;-86
2021/06/22 06:58:58;;;;;;;16.57;6.50;;;;;;;28.19;63.81;99507.57;1797622;78;20865;-82
2021/06/22 07:01:24;;;;;;;17.57;6.63;;;;;;;28.22;63.55;99506.99;1783738;78;20975;-84
2021/06/22 07:03:50;;;;;;;13.28;6.55;;;;;;;28.28;63.50;99506.63;1774927;80;21310;-83
2021/06/22 07:06:16;;;;;;;22.93;6.63;;;;;;;28.37;63.32;99503.27;1770002;79;20911;-86
2021/06/22 07:08:41;;;;;;;28.10;6.83;;;;;;;28.43;62.87;99502.94;1773598;79;20958;-86
2021/06/22 07:11:07;;;;;;;18.93;6.53;;;;;;;28.52;62.65;99499.00;1776130;80;26697;-82
2021/06/22 07:13:33;;;;;;;16.15;6.47;;;;;;;28.47;62.68;99505.30;1775689;77;27289;-88
2021/06/22 07:15:59;;;;;;;22.95;6.90;;;;;;;28.47;62.67;99508.58;1764281;80;21198;-90
2021/06/22 07:18:29;;;;;;;20.03;6.93;;;;;;;28.55;62.45;99505.20;1751598;80;21192;-82
2021/06/22 07:20:52;;;;;;;16.93;6.40;;;;;;;28.58;62.30;99500.58;1758195;80;20980;-82
2021/06/22 07:23:18;;;;;;;15.37;6.40;;;;;;;28.70;62.50;99503.41;1747686;81;22043;-86
2021/06/22 07:25:44;;;;;;;20.20;6.50;;;;;;;28.70;62.50;99503.41;1751285;81;21133;-81
2021/06/22 07:28:09;;;;;;;16.90;5.97;;;;;;;28.83;62.26;99508.92;1760967;81;26029;-82
2021/06/22 07:30:35;;;;;;;21.13;6.60;;;;;;;28.95;62.08;99507.13;1764208;80;28207;-80
2021/06/22 07:33:01;;;;;;;15.53;6.03;;;;;;;29.08;61.29;99507.49;1754478;80;20987;-80
2021/06/22 07:35:29;;;;;;;23.97;6.60;;;;;;;29.23;60.87;99510.01;1763558;80;20908;-82
2021/06/22 07:37:54;;;;;;;18.10;6.15;;;;;;;29.36;60.44;99507.88;1761293;80;21277;-81
2021/06/22 07:40:20;;;;;;;20.60;6.40;;;;;;;29.44;59.75;99508.30;1767682;80;21039;-82
2021/06/22 07:42:47;;;;;;;15.87;6.40;;;;;;;29.49;59.96;99505.48;1762369;80;28199;-82
2021/06/22 07:45:14;;;;;;;22.65;6.08;;;;;;;29.53;59.81;99511.95;1756107;80;21043;-81
2021/06/22 07:47:39;;;;;;;16.37;5.45;;;;;;;29.57;59.81;99512.98;1758658;78;21055;-80
2021/06/22 07:50:07;;;;;;;13.00;5.37;;;;;;;29.59;59.11;99512.13;1762613;81;21036;-79
2021/06/22 07:52:33;;;;;;;14.95;5.17;;;;;;;29.63;58.59;99525.40;1767107;80;21106;-82
2021/06/22 07:54:58;;;;;;;15.77;5.30;;;;;;;29.73;58.39;99527.92;1747207;81;21128;-79
2021/06/22 07:57:24;;;;;;;19.67;5.77;;;;;;;29.83;58.38;99519.35;1759692;81;21118;-80
2021/06/22 07:59:50;;;;;;;12.97;5.10;;;;;;;29.82;57.87;99527.28;1760331;80;20869;-84
2021/06/22 08:02:16;;;;;;;17.87;5.60;;;;;;;29.86;56.72;99520.11;1750592;81;20889;-80
2021/06/22 08:04:42;;;;;;;16.20;5.67;;;;;;;29.88;56.71;99518.72;1767451;80;21052;-83
2021/06/22 08:07:07;;;;;;;16.50;5.13;;;;;;;29.95;57.08;99517.52;1765183;80;20963;-81
2021/06/22 08:09:33;;;;;;;15.57;5.20;;;;;;;29.96;56.98;99509.05;1753719;79;20910;-81
2021/06/22 08:12:00;;;;;;;11.40;4.57;;;;;;;30.01;56.35;99514.38;1776969;79;20857;-80
2021/06/22 08:14:25;;;;;;;;;;;;;;;30.12;55.27;99518.28;1760088;79;21717;-82
2021/06/22 08:16:51;;;;;;;11.53;4.80;;;;;;;30.16;55.54;99515.19;1763561;79;21069;-83
2021/06/22 08:19:17;;;;;;;11.10;4.30;;;;;;;30.25;55.46;99516.09;1756496;79;20953;-83
2021/06/22 08:21:43;;;;;;;13.77;4.20;;;;;;;30.28;54.91;99522.30;1773006;78;20974;-85
2021/06/22 08:24:09;;;;;;;9.17;3.97;;;;;;;30.29;54.36;99525.28;1758442;79;20967;-84
2021/06/22 08:26:34;;;;;;;9.33;4.27;;;;;;;30.36;53.64;99516.69;1762341;79;21936;-82
2021/06/22 08:29:01;;;;;;;9.83;4.13;;;;;;;30.49;53.71;99528.74;1777311;78;22138;-81
2021/06/22 08:31:27;;;;;;;11.55;3.95;;;;;;;30.49;53.71;99528.74;1786488;78;21050;-86
2021/06/22 08:33:52;;;;;;;10.10;4.07;;;;;;;30.49;53.68;99536.91;1805782;77;21337;-82
2021/06/22 08:36:18;;;;;;;8.43;3.70;;;;;;;30.57;53.80;99536.19;1758603;79;21078;-82
2021/06/22 08:38:44;;;;;;;10.40;4.23;;;;;;;30.52;53.81;99535.74;1758049;79;20884;-82
2021/06/22 08:41:10;;;;;;;12.67;3.93;;;;;;;30.66;53.54;99534.36;1763472;79;21264;-82
2021/06/22 08:43:36;;;;;;;14.20;4.10;;;;;;;30.71;53.25;99541.63;1755944;77;20932;-82
2021/06/22 08:46:05;;;;;;;12.97;4.40;;;;;;;30.72;53.29;99535.86;1766301;79;20896;-84
2021/06/22 08:48:32;;;;;;;8.13;3.47;;;;;;;30.67;52.91;99545.52;1765382;78;21057;-84
2021/06/22 08:50:57;;;;;;;8.33;3.60;;;;;;;30.74;52.27;99541.80;1764172;79;21737;-83
2021/06/22 08:53:23;;;;;;;8.40;3.57;;;;;;;30.78;51.77;99549.63;1766381;79;22110;-84
2021/06/22 08:55:49;;;;;;;8.97;3.57;;;;;;;30.87;51.69;99550.27;1750202;79;20977;-82
2021/06/22 08:58:16;;;;;;;9.33;3.60;;;;;;;30.94;51.59;99553.39;1773352;78;21049;-81
2021/06/22 09:00:45;;;;;;;8.18;3.47;;;;;;;30.92;50.77;99555.59;1760210;79;21284;-81
2021/06/22 09:03:23;;;;;;;13.08;3.50;;;;;;;30.97;50.52;99552.80;1767227;79;21034;-83
2021/06/22 09:05:50;;;;;;;7.40;3.30;;;;;;;31.02;50.42;99554.61;1772811;78;20992;-84
2021/06/22 09:08:24;;;;;;;9.13;3.55;;;;;;;31.11;50.10;99552.77;1768243;78;21120;-81
2021/06/22 09:10:53;;;;;;;7.62;3.58;;;;;;;31.11;50.20;99553.56;1773966;79;21099;-83
2021/06/22 09:13:24;;;;;;;12.68;3.80;;;;;;;31.20;51.03;99556.37;1746957;79;21066;-81
2021/06/22 09:15:52;;;;;;;8.83;3.58;;;;;;;31.32;50.47;99558.53;1753685;80;21051;-81
2021/06/22 09:18:28;;;;;;;7.55;3.70;;;;;;;31.36;50.03;99563.62;1761319;81;21068;-82
2021/06/22 09:20:58;;;;;;;10.13;3.47;;;;;;;31.42;49.90;99561.02;1762027;79;21055;-81
2021/06/22 09:23:30;;;;;;;8.30;3.25;;;;;;;31.48;49.66;99569.90;1764316;80;21123;-83
2021/06/22 09:25:56;;;;;;;10.82;3.65;;;;;;;31.64;49.24;99567.62;1759012;80;21075;-86
2021/06/22 09:28:30;;;;;;;10.65;3.67;;;;;;;31.72;48.70;99568.79;1760582;79;21007;-89
2021/06/22 09:31:04;;;;;;;8.78;3.60;;;;;;;31.77;48.64;99567.28;1756203;80;21274;-81
2021/06/22 09:33:41;;;;;;;8.23;3.77;;;;;;;31.80;48.33;99564.72;1756138;80;21090;-81
2021/06/22 09:36:16;;;;;;;7.60;3.47;;;;;;;31.81;48.47;99577.84;1776624;78;21021;-82
2021/06/22 09:38:55;;;;;;;7.83;4.03;;;;;;;31.86;48.73;99566.20;1821331;78;21069;-80
2021/06/22 09:41:22;;;;;;;;;;;;;;;31.91;48.36;99563.11;1819313;76;21496;-82
2021/06/22 09:43:55;;;;;;;9.98;3.35;;;;;;;31.92;48.51;99567.45;1813710;78;21083;-81
2021/06/22 09:46:40;;;;;;;13.53;4.00;;;;;;;31.92;48.55;99557.90;1804652;76;21023;-79
2021/06/22 09:49:09;;;;;;;7.78;3.67;;;;;;;31.99;48.28;99556.88;1759872;80;21359;-81
2021/06/22 09:51:52;;;;;;;9.28;3.92;;;;;;;32.04;47.99;99558.13;1760606;80;21126;-81
2021/06/22 09:54:24;;;;;;;12.58;3.92;;;;;;;31.99;47.90;99546.77;1762724;78;21019;-83
2021/06/22 09:57:03;;;;;;;10.65;3.92;;;;;;;32.01;48.14;99551.92;1788802;77;21140;-82
2021/06/22 09:59:47;;;;;;;9.43;4.12;;;;;;;32.04;48.12;99549.92;1787523;77;21908;-80
2021/06/22 10:02:13;;;;;;;10.82;3.75;;;;;;;32.08;48.12;99550.89;1786321;78;21182;-82
2021/06/22 10:04:45;;;;;;;9.10;4.00;;;;;;;32.09;47.80;99539.42;1785381;78;20839;-80
2021/06/22 10:07:14;;;;;;;12.80;3.72;;;;;;;32.07;47.85;99546.56;1785559;80;21061;-79
2021/06/22 10:09:40;;;;;;;10.58;3.60;;;;;;;32.15;48.06;99546.39;1788643;78;21934;-80
2021/06/22 10:12:15;;;;;;;10.77;4.00;;;;;;;32.20;47.70;99543.50;1793648;78;21332;-82
2021/06/22 10:14:43;;;;;;;7.08;3.62;;;;;;;32.26;48.00;99543.61;1793712;79;20940;-83
2021/06/22 10:17:14;;;;;;;8.18;3.60;;;;;;;32.36;48.07;99537.03;1779100;78;39035;-82
2021/06/22 10:19:45;;;;;;;7.28;3.72;;;;;;;32.42;47.37;99545.33;1790191;79;21019;-80
2021/06/22 10:22:11;;;;;;;9.05;3.60;;;;;;;32.31;47.79;99541.29;1786716;79;21716;-83
2021/06/22 10:24:45;;;;;;;6.77;3.73;;;;;;;32.42;47.04;99550.00;1786462;77;22099;-83
2021/06/22 10:27:12;;;;;;;8.73;3.58;;;;;;;32.46;47.29;99543.59;1814095;77;21486;-80
2021/06/22 10:29:38;;;;;;;12.50;3.98;;;;;;;32.49;46.83;99540.76;1817123;77;21003;-81
2021/06/22 10:32:04;;;;;;;7.43;3.70;;;;;;;32.53;46.18;99547.21;1815485;77;20875;-82
2021/06/22 10:34:30;;;;;;;7.78;3.83;;;;;;;32.53;46.37;99542.54;1801913;77;21878;-84
2021/06/22 10:36:59;;;;;;;;;;;;;;;32.60;46.10;99539.90;1802912;77;21003;-83
2021/06/22 10:39:55;;;;;;;9.20;3.55;;;;;;;32.65;45.48;99535.70;1758046;79;20241;-81
2021/06/22 10:42:22;;;;;;;7.00;3.80;;;;;;;32.66;45.78;99531.81;1775910;79;22401;-81
2021/06/22 10:44:52;;;;;;;7.50;3.47;;;;;;;32.72;45.23;99540.11;1755872;79;21072;-85
2021/06/22 10:47:30;;;;;;;7.85;3.70;;;;;;;32.77;44.79;99541.34;1759515;79;21285;-83
2021/06/22 10:50:24;;;;;;;8.73;3.50;;;;;;;32.69;44.10;99532.55;1787727;78;20993;-82
2021/06/22 10:53:06;;;;;;;9.78;3.65;;;;;;;32.76;44.01;99532.89;1806866;76;21121;-83
2021/06/22 10:55:41;;;;;;;6.92;3.47;;;;;;;32.86;43.76;99524.38;1816186;76;20996;-81
2021/06/22 10:58:12;;;;;;;11.10;3.45;;;;;;;32.97;43.58;99521.31;1821545;78;21176;-83
2021/06/22 11:00:53;;;;;;;11.80;3.65;;;;;;;33.09;43.75;99516.82;1814423;76;21027;-84
2021/06/22 11:03:33;;;;;;;8.18;3.77;;;;;;;33.21;43.67;99499.76;1816796;76;20942;-84
2021/06/22 11:06:17;;;;;;;9.03;3.58;;;;;;;33.28;42.89;99500.08;1797409;78;21240;-82
2021/06/22 11:08:43;;;;;;;7.90;3.90;;;;;;;33.48;42.48;99500.51;1762406;79;21551;-82
2021/06/22 11:11:14;;;;;;;5.45;3.17;;;;;;;33.51;42.25;99494.38;1743392;79;21099;-81
2021/06/22 11:13:55;;;;;;;7.17;3.33;;;;;;;33.58;41.75;99500.17;1755918;79;21246;-80
2021/06/22 11:16:32;;;;;;;8.33;3.65;;;;;;;33.72;41.38;99502.73;1805698;78;21021;-81
2021/06/22 11:19:03;;;;;;;12.47;3.92;;;;;;;33.71;41.13;99501.66;1767637;78;20992;-86
2021/06/22 11:21:36;;;;;;;11.73;3.75;;;;;;;33.75;41.24;99506.77;1762923;80;21205;-82
2021/06/22 11:24:21;;;;;;;10.95;3.90;;;;;;;33.88;41.49;99511.20;1754664;79;21309;-85
2021/06/22 11:27:03;;;;;;;7.30;3.45;;;;;;;33.86;40.57;99506.63;1750936;81;21164;-83
2021/06/22 11:29:40;;;;;;;12.53;3.90;;;;;;;33.88;40.48;99507.67;1750258;81;21047;-83
2021/06/22 11:32:06;;;;;;;9.25;3.95;;;;;;;33.86;41.10;99505.27;1758327;79;21043;-83
2021/06/22 11:34:34;;;;;;;6.37;3.83;;;;;;;33.92;41.00;99499.02;1752356;80;20944;-82
2021/06/22 11:37:11;;;;;;;8.33;3.60;;;;;;;33.96;40.49;99495.30;1818496;78;21076;-88